Aérodrome :
LOGIN :

S'inscrire | Disclaimer

   EN    FR    IT 

 










Légende :    VFR   VFR Marginal   IFR   IFR Intensif   IFR Très Intensif
Visi : 
Plafond : 
>= 8 km
>= 3000ft
5 à 8 km
1000 à 3000 ft
1500m à 5 km
500 à 1000 ft
800 à 1500m
200 à 500 ft
< 800m
< 200 ft
Symboles :   Orages  Brouillard  Fortes neiges  Fortes précipitations  Vent > 20 kt
SIGMETs :   Divers  Orages  Givrage  Turbulence  Onde Orograph.  Cendres Volcan.







- Altitude de l'aérodrome : 37 ft
- Code IATA : OLB


LIEO - Olbia Costa Smeralda

DERNIER METAR :
  • 201320Z 05007KT 9999 FEW025 15/09 Q1024

METARs EXPIRÉS :
  • 201250Z 05006KT 010V070 9999 SCT025 15/08 Q1024
  • 201220Z 06006KT 020V130 9999 SCT025 16/07 Q1024
  • 201150Z 03003KT 320V090 9999 SCT030 15/08 Q1024
  • 201120Z VRB02KT 9999 FEW020 14/08 Q1024
  • 201050Z VRB01KT CAVOK 15/09 Q1025

TAF TAF LIEO
Valide du 20 à 12h jusqu'au 21 à 12h UTC


201100Z 2012/2112 08006KT 9999 SCT030
Pas de NOTAMs connus pour ce terrain.
1 SIGMET publié pour la FIR Roma (LIRR) :
 
Cendres volcaniques
LIRR SIGMET 2 VALID 201153/201815 LIIB
LIRR ROMA FIR VA ERUPTION MT ETNA PSN N3744 E01500 VA CLD OBS AT 1200Z WI N3704 E01500 - N3719 E01430 - N3749 E01500 - N3745 E01504 - N3704 E01500 MOV S 05KT SFC/FL160 NC FCST AT 1800Z WI N3649 E01500 - N3704 E01434 - N3749 E01500 - N3649 E01500=



MET'MAP, la Météo Aéronautique d'un coup d'oeil ! - Copyright ORBIFLY Décembre 2007 - Disclaimer

ORBIFLY MET'MAP TEAM :

Programmation & Développement : Alexandra Zaïnal
Conception & Développement : Baudouin d'Aumeries
Co-Programmation & Développement : Marc-Olivier Méhu
Soutien technique & logistique : Manuel Goepfert

Contact : metmap@orbifly.com




SOURCES & CREDITS :

   NOAA